Time;durP1;ratioP1;P1;durP2;ratioP2;P2;SDS_P1;SDS_P2;PMS_P1;PMS_P2;Temp;Humidity;BMP_temperature;BMP_pressure;BME280_temperature;BME280_humidity;BME280_pressure;Samples;Min_cycle;Max_cycle;Signal;HPM_P1;HPM_P2
2023/06/08 00:04:05;;;;;;;15.40;6.60;;;;;;;16.92;56.53;100576.13;221407;1265;97071;-88
2023/06/08 00:09:05;;;;;;;13.10;6.50;;;;;;;16.84;56.97;100577.98;220605;1265;140191;-89
2023/06/08 00:14:06;;;;;;;10.60;6.00;;;;;;;16.75;57.46;100580.63;221385;1265;138146;-89
2023/06/08 00:19:07;;;;;;;10.40;6.50;;;;;;;16.68;57.81;100579.59;220619;1265;139884;-89
2023/06/08 00:24:07;;;;;;;16.60;6.90;;;;;;;16.63;57.95;100578.29;220886;1265;138297;-89
2023/06/08 00:29:08;;;;;;;11.40;5.70;;;;;;;16.54;58.97;100578.47;220794;1266;140280;-89
2023/06/08 00:34:08;;;;;;;11.00;6.20;;;;;;;16.44;59.66;100577.15;221228;1265;97931;-89
2023/06/08 00:39:09;;;;;;;14.00;6.50;;;;;;;16.34;60.21;100576.19;220601;1264;140146;-89
2023/06/08 00:44:09;;;;;;;11.80;6.70;;;;;;;16.27;59.66;100579.60;221059;1265;138650;-89
2023/06/08 00:49:15;;;;;;;12.10;6.50;;;;;;;16.21;59.46;100576.88;220523;1265;140707;-89
2023/06/08 00:54:16;;;;;;;10.30;5.90;;;;;;;16.15;59.74;100571.30;220937;1265;138469;-89
2023/06/08 00:59:17;;;;;;;12.00;6.80;;;;;;;16.10;59.18;100569.44;220660;1265;140801;-89
2023/06/08 01:04:17;;;;;;;11.20;6.20;;;;;;;16.06;59.79;100574.71;221150;1265;98110;-89
2023/06/08 01:09:43;;;;;;;11.20;6.50;;;;;;;16.01;59.94;100570.63;220535;1265;140194;-88
2023/06/08 01:15:02;;;;;;;11.70;6.10;;;;;;;15.95;60.90;100564.27;221044;1265;138599;-88
2023/06/08 01:20:34;;;;;;;11.20;6.60;;;;;;;15.89;61.33;100569.23;220614;1265;141523;-88
2023/06/08 01:25:36;;;;;;;12.60;6.70;;;;;;;15.79;62.92;100569.95;221147;1265;139268;-89
2023/06/08 01:30:37;;;;;;;14.10;6.50;;;;;;;15.64;63.67;100562.85;220871;1268;141099;-89
2023/06/08 01:35:38;;;;;;;10.40;5.60;;;;;;;15.50;63.90;100554.63;221087;1265;138429;-88
2023/06/08 01:40:43;;;;;;;13.30;6.60;;;;;;;15.43;63.92;100557.52;220750;1265;140302;-89
2023/06/08 01:45:47;;;;;;;10.30;6.20;;;;;;;15.36;64.84;100552.16;221193;1266;137989;-89
2023/06/08 01:50:49;;;;;;;14.10;6.50;;;;;;;15.30;64.55;100553.45;220732;1265;139596;-89
2023/06/08 01:55:50;;;;;;;13.10;5.80;;;;;;;15.27;64.07;100550.30;221246;1265;138428;-89
2023/06/08 02:00:50;;;;;;;11.10;6.90;;;;;;;15.26;63.53;100553.63;220699;1264;141398;-89
2023/06/08 02:05:51;;;;;;;13.60;6.80;;;;;;;15.23;63.56;100558.23;221289;1266;138307;-88
2023/06/08 02:10:51;;;;;;;11.40;5.90;;;;;;;15.21;63.84;100563.96;220742;1264;140765;-90
2023/06/08 02:15:52;;;;;;;11.40;6.90;;;;;;;15.19;64.11;100560.25;221421;1266;97735;-90
2023/06/08 02:20:53;;;;;;;11.50;6.40;;;;;;;15.18;64.07;100558.76;220691;1264;139857;-90
2023/06/08 02:25:53;;;;;;;12.20;6.90;;;;;;;15.17;64.35;100557.81;221242;1267;138592;-89
2023/06/08 02:30:54;;;;;;;11.80;6.60;;;;;;;15.17;64.80;100558.77;220733;1265;139439;-90
2023/06/08 02:35:54;;;;;;;13.00;6.50;;;;;;;15.14;64.93;100558.05;221097;1266;138133;-90
2023/06/08 02:40:55;;;;;;;11.10;6.90;;;;;;;15.11;65.08;100556.81;220667;1265;140454;-88
2023/06/08 02:45:55;;;;;;;14.20;6.90;;;;;;;15.10;65.25;100561.34;221399;1266;96605;-90
2023/06/08 02:50:56;;;;;;;13.50;8.10;;;;;;;15.09;65.70;100558.88;220574;1264;139904;-90
2023/06/08 02:55:56;;;;;;;12.70;7.40;;;;;;;15.10;66.15;100558.25;221445;1264;138346;-89
2023/06/08 03:01:00;;;;;;;13.90;7.50;;;;;;;15.10;66.15;100556.34;220686;1266;141129;-89
2023/06/08 03:06:00;;;;;;;12.10;6.60;;;;;;;15.11;66.49;100554.76;221137;1268;138326;-89
2023/06/08 03:11:01;;;;;;;12.70;7.10;;;;;;;15.13;66.67;100557.19;220540;1266;140301;-89
2023/06/08 03:16:01;;;;;;;13.70;7.60;;;;;;;15.16;66.71;100553.70;221291;1266;98534;-89
2023/06/08 03:21:03;;;;;;;14.40;8.00;;;;;;;15.19;67.07;100551.92;220659;1265;138787;-89
2023/06/08 03:26:03;;;;;;;12.70;8.00;;;;;;;15.23;67.04;100555.80;221267;1266;138786;-89
2023/06/08 03:31:03;;;;;;;12.20;8.30;;;;;;;15.30;67.46;100566.86;220634;1265;140354;-89
2023/06/08 03:36:04;;;;;;;13.10;7.70;;;;;;;15.39;67.28;100570.31;221158;1268;138141;-90
2023/06/08 03:41:04;;;;;;;12.90;7.60;;;;;;;15.47;68.05;100567.88;220404;1268;141058;-89
2023/06/08 03:46:05;;;;;;;13.10;7.40;;;;;;;15.55;68.19;100571.47;221145;1266;97913;-90
2023/06/08 03:51:05;;;;;;;12.00;6.40;;;;;;;15.64;68.26;100571.80;220515;1266;139992;-89
2023/06/08 03:56:06;;;;;;;12.30;7.20;;;;;;;15.69;68.68;100569.22;221015;1266;138667;-89
2023/06/08 04:01:06;;;;;;;13.50;7.30;;;;;;;15.77;68.94;100573.53;220675;1265;141593;-89
2023/06/08 04:06:10;;;;;;;14.40;7.70;;;;;;;15.85;68.73;100572.67;221255;1266;140116;-90
2023/06/08 04:11:11;;;;;;;11.70;7.50;;;;;;;15.93;69.33;100572.52;220458;1266;141908;-90
2023/06/08 04:16:13;;;;;;;12.90;7.50;;;;;;;16.01;69.75;100573.48;221134;1266;97916;-91
2023/06/08 04:21:14;;;;;;;15.10;8.70;;;;;;;16.09;69.76;100576.02;220555;1265;140785;-90
2023/06/08 04:26:16;;;;;;;16.50;7.90;;;;;;;16.16;69.08;100575.66;221103;1266;139430;-89
2023/06/08 04:31:16;;;;;;;10.40;7.00;;;;;;;16.24;69.07;100575.34;220551;1266;142308;-90
2023/06/08 04:36:16;;;;;;;15.00;8.00;;;;;;;16.32;69.79;100573.75;221178;1266;139069;-90
2023/06/08 04:41:18;;;;;;;11.20;7.00;;;;;;;16.42;70.22;100573.98;220726;1265;141139;-90
2023/06/08 04:46:19;;;;;;;13.70;8.10;;;;;;;16.51;70.19;100571.84;221287;1265;97973;-90
2023/06/08 04:51:23;;;;;;;16.20;8.50;;;;;;;16.60;70.11;100571.58;220905;1266;140008;-89
2023/06/08 04:56:24;;;;;;;12.70;7.20;;;;;;;16.71;70.06;100574.24;221221;1266;138743;-88
2023/06/08 05:01:24;;;;;;;13.90;8.40;;;;;;;16.82;69.84;100574.19;220804;1265;141149;-89
2023/06/08 05:06:25;;;;;;;14.70;8.90;;;;;;;16.98;70.09;100575.83;221459;1266;138886;-90
2023/06/08 05:11:26;;;;;;;15.10;8.90;;;;;;;17.21;68.90;100575.27;220746;1265;140691;-91
2023/06/08 05:16:26;;;;;;;11.40;8.30;;;;;;;17.46;67.64;100573.11;221452;1266;97683;-91
2023/06/08 05:21:26;;;;;;;12.60;8.10;;;;;;;17.75;67.53;100573.70;220968;1268;140663;-91
2023/06/08 05:26:27;;;;;;;15.00;9.90;;;;;;;18.11;66.89;100580.98;221418;1267;139200;-90
2023/06/08 05:31:27;;;;;;;15.90;9.60;;;;;;;18.50;66.07;100580.48;220993;1265;139610;-91
2023/06/08 05:36:28;;;;;;;13.70;9.50;;;;;;;18.82;64.86;100582.80;221383;1266;138828;-91
2023/06/08 05:41:29;;;;;;;15.10;9.90;;;;;;;19.16;64.23;100577.79;220683;1268;141778;-91
2023/06/08 05:46:29;;;;;;;15.40;10.10;;;;;;;19.50;63.63;100580.16;221314;1266;97190;-90
2023/06/08 05:51:30;;;;;;;14.80;9.20;;;;;;;19.87;63.08;100587.09;220964;1266;140434;-91
2023/06/08 05:56:32;;;;;;;16.60;9.50;;;;;;;20.43;62.72;100588.56;221327;1265;138610;-91
2023/06/08 06:01:33;;;;;;;16.40;10.20;;;;;;;21.15;62.67;100587.17;220857;1266;140205;-90
2023/06/08 06:06:35;;;;;;;17.10;10.80;;;;;;;22.03;60.83;100582.42;221476;1265;140074;-91
2023/06/08 06:11:35;;;;;;;17.20;9.40;;;;;;;22.85;58.64;100582.93;220946;1265;142761;-90
2023/06/08 06:16:36;;;;;;;13.90;9.20;;;;;;;23.58;59.04;100581.83;221327;1266;97902;-92
2023/06/08 06:21:36;;;;;;;13.00;9.20;;;;;;;24.16;57.87;100577.32;220917;1265;140179;-92
2023/06/08 06:26:36;;;;;;;13.00;8.80;;;;;;;24.82;56.15;100575.23;221396;1266;138598;-92
2023/06/08 06:31:37;;;;;;;11.50;8.30;;;;;;;25.25;53.10;100584.35;221049;1266;140868;-93
2023/06/08 06:36:37;;;;;;;13.80;9.30;;;;;;;25.71;51.30;100588.14;221137;1264;343836;-90
2023/06/08 06:41:38;;;;;;;12.20;9.10;;;;;;;26.05;49.67;100591.41;220908;1266;140322;-93
2023/06/08 06:46:40;;;;;;;16.20;9.80;;;;;;;26.21;49.32;100587.67;221429;1266;98897;-93
2023/06/08 06:51:40;;;;;;;18.90;9.80;;;;;;;26.17;48.88;100592.63;220729;1266;140448;-92
2023/06/08 06:56:41;;;;;;;12.80;9.00;;;;;;;26.08;48.05;100592.45;221456;1266;138091;-91
2023/06/08 07:01:41;;;;;;;16.90;10.00;;;;;;;26.34;47.94;100594.52;220840;1265;141190;-92
2023/06/08 07:06:42;;;;;;;16.40;10.70;;;;;;;26.63;47.03;100589.89;221612;1266;138422;-93
2023/06/08 07:11:43;;;;;;;15.80;10.30;;;;;;;26.57;46.70;100594.80;220878;1267;139967;-92
2023/06/08 07:16:43;;;;;;;17.50;10.40;;;;;;;26.58;46.60;100592.40;221261;1264;97641;-92
2023/06/08 07:21:44;;;;;;;15.50;10.10;;;;;;;26.74;46.65;100591.86;220866;1265;140001;-93
2023/06/08 07:26:45;;;;;;;15.80;10.00;;;;;;;26.92;46.35;100593.59;221365;1266;138667;-92
2023/06/08 07:31:46;;;;;;;16.50;9.60;;;;;;;27.17;46.75;100601.08;220746;1268;140257;-92
2023/06/08 07:36:46;;;;;;;14.50;9.90;;;;;;;27.56;46.29;100601.46;221351;1266;139010;-92
2023/06/08 07:41:47;;;;;;;15.10;9.80;;;;;;;27.96;45.35;100595.61;221099;1266;139808;-89
2023/06/08 07:46:47;;;;;;;17.20;10.10;;;;;;;28.41;44.65;100595.48;221604;1268;97963;-90
2023/06/08 07:51:47;;;;;;;17.60;9.80;;;;;;;28.90;43.69;100601.61;220806;1266;140482;-92
2023/06/08 07:56:49;;;;;;;14.50;9.00;;;;;;;29.53;43.63;100598.87;221349;1268;138299;-93
2023/06/08 08:01:50;;;;;;;13.00;9.20;;;;;;;30.15;41.99;100598.48;221253;1266;140379;-92
2023/06/08 08:06:50;;;;;;;23.80;9.20;;;;;;;30.56;42.10;100591.31;221512;1268;138223;-92
2023/06/08 08:11:51;;;;;;;11.50;7.80;;;;;;;31.36;40.60;100591.23;221554;1266;141429;-92
2023/06/08 08:16:51;;;;;;;13.80;8.10;;;;;;;31.94;38.17;100593.02;221667;1266;103272;-90
2023/06/08 08:21:51;;;;;;;15.50;8.30;;;;;;;32.50;37.21;100594.09;220797;1266;141022;-90
2023/06/08 08:26:55;;;;;;;12.40;7.00;;;;;;;32.99;36.09;100595.74;221668;1266;138775;-90
2023/06/08 08:31:56;;;;;;;11.10;6.90;;;;;;;33.31;35.03;100595.14;220867;1266;140985;-88
2023/06/08 08:36:56;;;;;;;13.40;7.60;;;;;;;33.75;34.07;100597.81;221177;1266;138801;-88
2023/06/08 08:42:01;;;;;;;15.40;6.90;;;;;;;33.88;33.50;100598.42;220819;1266;140794;-89
2023/06/08 08:47:04;;;;;;;12.30;6.80;;;;;;;34.06;33.37;100595.60;221196;1266;139281;-90
2023/06/08 08:52:08;;;;;;;9.60;6.70;;;;;;;34.66;33.82;100585.19;220777;1266;140480;-90
2023/06/08 08:57:08;;;;;;;11.60;7.20;;;;;;;35.39;32.73;100579.33;221266;1266;138506;-93
2023/06/08 09:02:09;;;;;;;10.80;6.80;;;;;;;35.59;31.20;100576.36;220727;1266;140647;-92
2023/06/08 09:07:10;;;;;;;10.40;6.90;;;;;;;35.74;30.31;100571.63;221512;1267;138112;-89
2023/06/08 09:12:11;;;;;;;9.50;6.40;;;;;;;36.36;30.45;100568.98;220792;1266;140044;-89
2023/06/08 09:17:37;;;;;;;8.20;5.70;;;;;;;37.06;28.57;100566.13;221419;1265;137588;-89
2023/06/08 09:22:38;;;;;;;9.90;5.50;;;;;;;36.92;27.49;100565.36;220862;1266;139063;-90
2023/06/08 09:27:39;;;;;;;10.10;6.20;;;;;;;36.64;26.80;100565.61;221180;1266;138532;-89
2023/06/08 09:32:40;;;;;;;8.90;5.50;;;;;;;36.54;27.43;100560.75;220901;1266;139555;-90
2023/06/08 09:37:41;;;;;;;11.00;5.50;;;;;;;36.35;26.95;100557.55;221314;1266;138647;-90
2023/06/08 09:42:46;;;;;;;10.70;6.40;;;;;;;36.03;26.74;100558.86;220750;1268;139817;-91
2023/06/08 09:47:47;;;;;;;9.90;5.90;;;;;;;35.56;27.33;100561.04;221843;1264;138172;-88
2023/06/08 09:52:48;;;;;;;10.10;5.80;;;;;;;35.21;27.33;100556.04;221099;1268;140360;-90
2023/06/08 09:57:49;;;;;;;10.60;5.60;;;;;;;34.78;28.07;100559.05;221490;1268;138145;-89
2023/06/08 10:03:24;;;;;;;8.60;5.30;;;;;;;34.54;28.18;100552.71;220904;1266;139720;-88
2023/06/08 10:08:26;;;;;;;8.20;5.20;;;;;;;34.29;28.94;100555.92;221285;1268;138035;-90
2023/06/08 10:13:27;;;;;;;10.30;5.60;;;;;;;34.17;29.71;100550.23;220877;1268;139998;-91
2023/06/08 10:18:29;;;;;;;7.10;4.70;;;;;;;34.03;30.04;100544.98;220961;1265;138362;-90
2023/06/08 10:23:31;;;;;;;13.00;5.70;;;;;;;33.82;29.76;100541.30;220765;1268;139445;-90
2023/06/08 10:28:32;;;;;;;10.90;5.70;;;;;;;33.34;29.40;100531.34;221478;1266;97897;-90
2023/06/08 10:33:39;;;;;;;11.00;7.10;;;;;;;33.11;29.38;100528.82;220959;1268;140102;-89
2023/06/08 10:38:59;;;;;;;10.40;6.10;;;;;;;32.64;29.38;100527.45;222175;1266;138148;-90
2023/06/08 10:44:00;;;;;;;10.60;6.20;;;;;;;32.38;30.97;100520.64;221199;1265;240443;-90
2023/06/08 10:49:01;;;;;;;12.60;5.50;;;;;;;32.10;30.97;100521.80;220812;1268;140998;-90
2023/06/08 10:54:02;;;;;;;10.70;5.90;;;;;;;31.82;30.33;100521.92;221447;1268;138714;-89
2023/06/08 10:59:02;;;;;;;9.60;6.00;;;;;;;31.47;31.06;100519.41;220731;1266;142178;-90
2023/06/08 11:04:05;;;;;;;7.80;5.30;;;;;;;31.31;32.65;100520.24;221449;1264;97946;-90
2023/06/08 11:09:06;;;;;;;9.30;5.00;;;;;;;31.17;33.75;100514.13;220800;1268;139997;-90
2023/06/08 11:14:06;;;;;;;9.60;5.60;;;;;;;31.01;33.45;100514.20;221441;1268;138157;-91
2023/06/08 11:19:09;;;;;;;9.90;5.00;;;;;;;30.97;33.07;100513.53;220733;1268;139697;-90
2023/06/08 11:24:10;;;;;;;12.90;5.50;;;;;;;30.99;32.90;100508.88;221378;1268;138039;-90
2023/06/08 11:29:12;;;;;;;8.20;5.50;;;;;;;31.27;33.92;100501.57;220673;1270;140435;-91
2023/06/08 11:34:15;;;;;;;9.30;5.00;;;;;;;31.80;32.53;100497.75;221335;1267;97956;-92
2023/06/08 11:39:15;;;;;;;9.00;5.30;;;;;;;32.17;32.37;100496.30;220759;1268;139971;-92
2023/06/08 11:44:16;;;;;;;13.50;5.90;;;;;;;32.41;32.28;100496.11;221371;1266;137918;-90
2023/06/08 11:49:16;;;;;;;8.50;5.20;;;;;;;32.29;32.41;100496.94;220955;1267;140468;-90
2023/06/08 11:54:17;;;;;;;9.90;6.00;;;;;;;32.23;32.37;100494.46;221315;1266;137984;-91
2023/06/08 11:59:25;;;;;;;8.10;5.60;;;;;;;32.18;32.52;100493.08;220778;1266;139817;-91
2023/06/08 12:04:35;;;;;;;9.80;5.90;;;;;;;32.18;32.64;100491.69;221224;1266;97850;-90
2023/06/08 12:09:46;;;;;;;8.20;5.40;;;;;;;32.24;32.99;100488.36;220399;1267;140939;-90
2023/06/08 12:14:48;;;;;;;11.00;5.30;;;;;;;32.25;32.80;100484.89;221159;1269;138152;-92
2023/06/08 12:19:52;;;;;;;11.30;6.50;;;;;;;32.19;32.80;100475.84;220694;1269;140277;-90
2023/06/08 12:24:53;;;;;;;10.50;6.30;;;;;;;32.17;32.74;100467.41;221147;1267;138118;-91
2023/06/08 12:29:54;;;;;;;9.10;5.40;;;;;;;32.11;32.51;100461.27;220773;1267;140537;-90
2023/06/08 12:34:59;;;;;;;9.20;5.60;;;;;;;32.36;31.46;100459.41;221351;1265;137997;-91
2023/06/08 12:40:00;;;;;;;;;;;;;;;32.65;29.90;100450.42;220569;1267;139839;-89
2023/06/08 12:45:02;;;;;;;10.00;5.50;;;;;;;32.96;28.81;100447.88;221268;1267;124599;-89
2023/06/08 12:50:04;;;;;;;9.80;5.50;;;;;;;33.34;28.00;100439.48;220746;1268;139748;-89
2023/06/08 12:55:06;;;;;;;8.80;4.70;;;;;;;33.61;27.62;100435.95;221303;1267;138103;-90
2023/06/08 13:00:08;;;;;;;9.90;4.80;;;;;;;33.75;27.25;100426.59;220939;1267;140688;-90
2023/06/08 13:05:09;;;;;;;11.10;5.20;;;;;;;34.11;26.94;100427.23;221365;1266;137953;-91
2023/06/08 13:10:09;;;;;;;7.90;4.50;;;;;;;34.57;26.79;100424.59;220832;1267;140308;-91
2023/06/08 13:15:10;;;;;;;9.60;5.10;;;;;;;34.93;26.07;100422.37;221479;1265;139220;-90
2023/06/08 13:20:10;;;;;;;8.30;5.00;;;;;;;34.93;26.30;100417.91;221132;1265;141064;-91
2023/06/08 13:25:11;;;;;;;11.90;5.30;;;;;;;34.63;26.00;100413.86;221490;1266;138983;-90
2023/06/08 13:30:12;;;;;;;8.50;4.90;;;;;;;34.19;26.22;100415.98;220850;1267;142672;-90
2023/06/08 13:35:13;;;;;;;12.70;4.90;;;;;;;34.19;26.03;100413.99;221304;1266;138179;-87
2023/06/08 13:40:14;;;;;;;6.60;4.30;;;;;;;34.50;26.33;100408.13;221033;1266;140425;-90
2023/06/08 13:45:15;;;;;;;8.10;4.80;;;;;;;34.78;26.16;100402.29;221592;1267;138179;-90
2023/06/08 13:50:16;;;;;;;10.00;4.70;;;;;;;34.89;25.35;100402.48;221703;1268;140244;-90
2023/06/08 13:55:17;;;;;;;8.50;4.90;;;;;;;35.12;24.99;100403.90;221931;1267;138740;-91
2023/06/08 14:00:19;;;;;;;16.50;11.60;;;;;;;35.23;25.23;100402.69;221225;1265;140461;-91
2023/06/08 14:05:20;;;;;;;10.70;5.60;;;;;;;34.60;25.13;100400.38;221528;1268;138338;-90
2023/06/08 14:10:21;;;;;;;9.10;5.20;;;;;;;34.15;25.82;100400.35;220926;1265;141391;-90
2023/06/08 14:15:21;;;;;;;7.80;5.00;;;;;;;34.16;26.96;100401.16;221357;1266;137753;-89
2023/06/08 14:20:23;;;;;;;9.30;5.30;;;;;;;34.10;27.10;100394.95;220726;1266;141039;-88
2023/06/08 14:25:23;;;;;;;7.30;5.00;;;;;;;33.61;26.46;100396.27;221256;1266;138879;-89
2023/06/08 14:30:24;;;;;;;8.90;4.70;;;;;;;33.25;27.29;100387.01;220863;1268;140637;-89
2023/06/08 14:35:25;;;;;;;8.70;5.30;;;;;;;33.30;27.69;100382.52;221283;1265;138206;-89
2023/06/08 14:40:26;;;;;;;11.80;9.10;;;;;;;33.22;27.01;100379.71;220791;1268;141104;-88
2023/06/08 14:45:26;;;;;;;11.30;8.70;;;;;;;33.15;26.72;100375.08;221433;1265;138124;-88
2023/06/08 14:50:30;;;;;;;8.10;4.50;;;;;;;32.91;26.99;100368.66;220845;1267;140188;-89
2023/06/08 14:55:31;;;;;;;10.10;5.20;;;;;;;33.21;27.50;100359.66;221377;1268;138601;-89
2023/06/08 15:00:31;;;;;;;8.80;5.30;;;;;;;33.39;27.88;100356.58;220529;1265;140325;-88
2023/06/08 15:05:32;;;;;;;7.90;4.90;;;;;;;33.30;27.51;100352.15;221237;1264;139640;-89
2023/06/08 15:10:32;;;;;;;7.30;4.70;;;;;;;33.32;28.33;100343.33;220531;1266;139831;-90
2023/06/08 15:15:33;;;;;;;12.10;5.00;;;;;;;33.35;27.90;100339.19;221329;1266;137958;-89
2023/06/08 15:20:33;;;;;;;10.30;5.40;;;;;;;33.20;28.08;100337.27;220735;1265;141416;-89
2023/06/08 15:25:33;;;;;;;9.80;5.10;;;;;;;33.17;28.27;100336.61;221304;1266;138353;-90
2023/06/08 15:30:34;;;;;;;10.20;4.80;;;;;;;33.09;28.02;100336.08;220682;1265;141474;-89
2023/06/08 15:35:34;;;;;;;11.90;5.10;;;;;;;32.91;28.23;100337.20;221204;1265;138930;-88
2023/06/08 15:40:35;;;;;;;7.70;4.50;;;;;;;32.86;28.28;100338.85;220896;1266;141346;-88
2023/06/08 15:45:36;;;;;;;8.80;4.90;;;;;;;32.77;28.63;100335.81;221252;1265;139506;-88
2023/06/08 15:50:36;;;;;;;8.10;4.90;;;;;;;32.71;29.32;100335.21;220651;1266;139701;-88
2023/06/08 15:55:37;;;;;;;8.70;4.10;;;;;;;32.62;29.28;100329.65;221182;1265;139032;-88
2023/06/08 16:00:37;;;;;;;8.20;4.60;;;;;;;32.50;29.08;100321.99;220629;1266;142630;-87
2023/06/08 16:05:38;;;;;;;7.80;4.60;;;;;;;32.30;28.44;100323.23;221137;1266;138976;-87
2023/06/08 16:10:38;;;;;;;6.90;4.80;;;;;;;32.06;29.25;100322.23;220652;1266;142244;-87
2023/06/08 16:15:39;;;;;;;8.70;5.10;;;;;;;31.78;29.03;100320.05;221166;1265;138509;-87
2023/06/08 16:20:41;;;;;;;9.00;4.90;;;;;;;31.38;28.95;100317.30;220796;1265;140684;-87
2023/06/08 16:25:42;;;;;;;11.10;5.10;;;;;;;31.17;29.36;100315.02;221210;1265;140172;-87
2023/06/08 16:30:42;;;;;;;9.30;4.40;;;;;;;30.89;29.77;100310.88;220749;1266;140679;-87
2023/06/08 16:35:43;;;;;;;8.20;5.00;;;;;;;30.57;29.24;100312.61;221371;1266;138510;-87
2023/06/08 16:40:43;;;;;;;8.30;4.50;;;;;;;30.17;28.96;100315.77;220967;1264;139656;-87
2023/06/08 16:45:44;;;;;;;7.60;4.50;;;;;;;29.90;30.00;100310.38;221339;1265;138428;-87
2023/06/08 16:50:45;;;;;;;9.80;5.20;;;;;;;29.76;31.24;100308.27;220516;1266;141415;-87
2023/06/08 16:55:45;;;;;;;8.20;5.80;;;;;;;29.62;31.29;100304.88;221201;1265;139337;-87
2023/06/08 17:00:46;;;;;;;11.10;6.20;;;;;;;29.40;31.66;100305.64;220422;1266;139774;-87
2023/06/08 17:05:46;;;;;;;13.10;7.80;;;;;;;29.11;31.80;100305.67;220941;1266;138613;-87
2023/06/08 17:10:47;;;;;;;11.90;8.10;;;;;;;28.88;31.75;100307.23;220754;1265;141116;-87
2023/06/08 17:15:47;;;;;;;12.60;6.00;;;;;;;28.62;32.50;100310.31;221258;1265;137830;-87
2023/06/08 17:20:47;;;;;;;12.50;5.60;;;;;;;28.39;32.47;100303.75;220447;1268;140173;-87
2023/06/08 17:25:48;;;;;;;9.90;5.60;;;;;;;28.22;32.06;100302.75;221099;1266;138721;-87
2023/06/08 17:30:49;;;;;;;12.90;6.10;;;;;;;27.96;32.82;100307.37;220854;1266;141158;-88
2023/06/08 17:35:50;;;;;;;8.40;5.10;;;;;;;27.71;32.63;100309.69;221462;1265;138728;-88
2023/06/08 17:40:50;;;;;;;10.60;5.60;;;;;;;27.50;32.86;100303.79;220683;1264;139403;-88
2023/06/08 17:45:51;;;;;;;9.90;5.70;;;;;;;27.31;33.23;100302.36;221196;1265;138394;-87
2023/06/08 17:50:51;;;;;;;8.60;5.00;;;;;;;27.14;33.42;100299.64;220527;1266;138425;-88
2023/06/08 17:55:53;;;;;;;10.60;6.20;;;;;;;26.99;33.94;100300.86;221093;1265;138483;-87
2023/06/08 18:00:54;;;;;;;15.50;8.40;;;;;;;26.81;34.06;100301.10;220446;1265;140860;-89
2023/06/08 18:05:55;;;;;;;12.60;7.70;;;;;;;26.62;34.62;100303.42;221179;1265;138667;-87
2023/06/08 18:10:58;;;;;;;12.20;7.20;;;;;;;26.46;34.90;100303.15;220505;1265;141421;-88
2023/06/08 18:15:58;;;;;;;11.60;6.30;;;;;;;26.27;35.11;100305.02;221565;1265;107554;-88
2023/06/08 18:20:59;;;;;;;11.60;6.50;;;;;;;26.06;34.71;100303.63;220639;1266;141554;-87
2023/06/08 18:25:59;;;;;;;8.90;6.10;;;;;;;25.89;34.72;100302.92;221110;1268;138895;-87
2023/06/08 18:30:59;;;;;;;10.20;5.80;;;;;;;25.73;35.12;100307.98;220720;1265;139902;-88
2023/06/08 18:36:00;;;;;;;10.20;5.80;;;;;;;25.53;35.68;100308.92;221058;1265;248959;-88
2023/06/08 18:41:00;;;;;;;9.30;6.00;;;;;;;25.39;37.46;100312.11;220750;1266;139797;-85
2023/06/08 18:46:01;;;;;;;12.90;6.10;;;;;;;25.24;36.78;100315.88;221641;1265;97949;-87
2023/06/08 18:51:02;;;;;;;11.80;5.70;;;;;;;25.08;37.80;100315.44;221155;1265;140075;-88
2023/06/08 18:56:02;;;;;;;11.50;5.80;;;;;;;24.97;38.90;100319.19;221306;1265;138414;-88
2023/06/08 19:01:02;;;;;;;11.50;6.20;;;;;;;24.87;40.75;100329.66;220545;1265;140439;-87
2023/06/08 19:06:03;;;;;;;13.40;6.70;;;;;;;24.70;41.32;100329.14;221613;1265;138866;-88
2023/06/08 19:11:04;;;;;;;9.80;6.40;;;;;;;24.54;41.88;100334.25;221083;1265;141586;-87
2023/06/08 19:16:06;;;;;;;9.80;6.00;;;;;;;24.36;42.63;100339.27;221564;1268;96721;-87
2023/06/08 19:21:06;;;;;;;10.90;6.20;;;;;;;24.12;43.33;100347.84;220784;1265;140076;-87
2023/06/08 19:26:06;;;;;;;11.30;7.10;;;;;;;23.86;43.82;100353.95;221113;1265;138706;-87
2023/06/08 19:31:07;;;;;;;11.70;7.10;;;;;;;23.59;44.83;100360.65;220766;1266;140483;-88
2023/06/08 19:36:07;;;;;;;13.10;7.40;;;;;;;23.30;45.09;100364.10;221166;1267;139555;-87
2023/06/08 19:41:08;;;;;;;11.00;6.80;;;;;;;23.00;45.73;100367.91;220528;1268;140752;-87
2023/06/08 19:46:08;;;;;;;13.80;7.60;;;;;;;22.76;46.18;100372.09;221661;1265;96608;-87
2023/06/08 19:51:09;;;;;;;13.40;7.90;;;;;;;22.55;47.34;100373.02;220859;1266;140577;-86
2023/06/08 19:56:09;;;;;;;13.30;7.20;;;;;;;22.33;48.37;100376.23;221252;1266;138187;-86
2023/06/08 20:01:11;;;;;;;16.80;8.20;;;;;;;22.10;49.36;100372.77;220886;1265;139607;-86
2023/06/08 20:06:13;;;;;;;17.90;7.80;;;;;;;21.91;50.31;100371.45;221126;1266;138095;-87
2023/06/08 20:11:14;;;;;;;13.80;7.40;;;;;;;21.71;51.07;100372.43;220905;1265;139907;-84
2023/06/08 20:16:14;;;;;;;12.20;7.70;;;;;;;21.52;51.17;100378.56;221521;1265;96642;-84
2023/06/08 20:21:15;;;;;;;13.60;8.10;;;;;;;21.37;51.77;100379.56;220838;1265;140643;-84
2023/06/08 20:26:15;;;;;;;11.70;7.60;;;;;;;21.20;52.23;100377.98;221696;1268;137998;-84
2023/06/08 20:31:16;;;;;;;16.60;8.60;;;;;;;21.01;53.09;100375.58;220823;1265;140327;-87
2023/06/08 20:36:17;;;;;;;14.40;8.10;;;;;;;20.82;53.85;100372.65;221710;1264;138547;-88
2023/06/08 20:41:17;;;;;;;13.40;8.70;;;;;;;20.66;54.96;100377.47;220804;1265;139866;-90
2023/06/08 20:46:18;;;;;;;13.00;8.00;;;;;;;20.47;55.81;100383.30;221382;1265;97891;-91
2023/06/08 20:51:20;;;;;;;16.60;8.90;;;;;;;20.25;55.91;100386.86;220963;1265;140690;-90
2023/06/08 20:56:21;;;;;;;14.50;7.60;;;;;;;20.06;56.14;100389.00;221483;1266;139242;-89
2023/06/08 21:01:22;;;;;;;14.00;8.00;;;;;;;19.93;57.11;100391.26;220758;1266;140529;-88
2023/06/08 21:06:24;;;;;;;10.10;6.80;;;;;;;19.78;57.67;100397.96;221386;1265;138507;-88
2023/06/08 21:11:25;;;;;;;13.70;8.30;;;;;;;19.72;57.74;100397.16;221146;1268;141299;-88
2023/06/08 21:16:25;;;;;;;11.80;7.40;;;;;;;19.62;57.27;100397.75;221706;1266;98842;-88
2023/06/08 21:21:26;;;;;;;12.50;7.50;;;;;;;19.59;56.65;100407.08;220907;1266;140078;-86
2023/06/08 21:26:29;;;;;;;15.50;8.60;;;;;;;19.52;57.65;100410.05;221453;1264;138117;-88
2023/06/08 21:31:30;;;;;;;11.80;7.20;;;;;;;19.47;57.70;100418.50;220910;1265;142211;-88
2023/06/08 21:36:30;;;;;;;11.80;7.50;;;;;;;19.40;57.74;100416.98;221428;1265;138134;-87
2023/06/08 21:41:30;;;;;;;10.70;7.30;;;;;;;19.37;58.06;100414.34;220645;1266;141268;-87
2023/06/08 21:46:31;;;;;;;15.00;9.00;;;;;;;19.36;58.16;100416.85;221632;1264;97615;-88
2023/06/08 21:51:31;;;;;;;9.80;6.80;;;;;;;19.36;58.84;100415.57;220895;1266;140022;-88
2023/06/08 21:56:32;;;;;;;13.50;7.40;;;;;;;19.36;59.44;100412.00;221415;1266;138730;-88
2023/06/08 22:01:52;;;;;;;11.40;6.40;;;;;;;19.37;59.68;100406.16;220781;1266;140559;-84
2023/06/08 22:06:52;;;;;;;12.00;6.50;;;;;;;19.35;58.63;100413.37;219971;1266;138156;-88
2023/06/08 22:11:53;;;;;;;12.60;7.10;;;;;;;19.33;58.90;100412.30;219578;1266;140885;-88
2023/06/08 22:16:54;;;;;;;11.80;7.50;;;;;;;19.31;57.93;100408.11;219927;1265;138312;-88
2023/06/08 22:21:55;;;;;;;10.50;6.90;;;;;;;19.30;58.81;100411.27;219635;1265;139971;-88
2023/06/08 22:26:56;;;;;;;14.40;7.70;;;;;;;19.28;58.52;100412.33;220043;1265;138856;-89
2023/06/08 22:31:56;;;;;;;10.70;6.70;;;;;;;19.25;57.53;100408.82;219560;1266;140812;-88
2023/06/08 22:36:57;;;;;;;10.90;7.10;;;;;;;19.23;56.79;100414.53;220045;1266;138342;-89
2023/06/08 22:41:57;;;;;;;11.10;6.80;;;;;;;19.21;56.37;100413.20;219625;1268;141433;-89